Time;durP1;ratioP1;P1;durP2;ratioP2;P2;SDS_P1;SDS_P2;PMS_P1;PMS_P2;Temp;Humidity;BMP_temperature;BMP_pressure;BME280_temperature;BME280_humidity;BME280_pressure;Samples;Min_cycle;Max_cycle;Signal;HPM_P1;HPM_P2
2022/03/05 00:00:25;;;;;;;23.93;12.80;;;;;;;5.91;37.76;97627.38;5032866;28;20204;-70
2022/03/05 00:02:51;;;;;;;23.63;13.60;;;;;;;5.81;37.82;97628.97;5032972;28;20281;-71
2022/03/05 00:05:16;;;;;;;24.80;13.60;;;;;;;5.80;38.07;97622.09;5032940;28;20262;-71
2022/03/05 00:07:42;;;;;;;22.17;12.77;;;;;;;5.75;38.40;97625.03;5033184;28;20531;-70
2022/03/05 00:10:09;;;;;;;22.80;13.13;;;;;;;5.65;37.62;97624.91;5032860;28;20360;-70
2022/03/05 00:12:35;;;;;;;23.37;12.90;;;;;;;5.66;37.52;97626.56;5032650;28;20237;-71
2022/03/05 00:15:00;;;;;;;19.47;12.47;;;;;;;5.68;37.96;97624.66;5032618;28;20922;-70
2022/03/05 00:17:26;;;;;;;20.23;12.50;;;;;;;5.70;38.10;97627.16;5032774;28;20727;-72
2022/03/05 00:19:52;;;;;;;23.57;12.70;;;;;;;5.72;38.03;97624.44;5032848;28;20302;-71
2022/03/05 00:22:17;;;;;;;24.10;13.23;;;;;;;5.68;38.41;97627.25;5032560;28;20505;-68
2022/03/05 00:24:45;;;;;;;23.17;12.60;;;;;;;5.65;38.23;97630.09;5032778;28;20271;-70
2022/03/05 00:27:10;;;;;;;22.40;12.30;;;;;;;5.58;38.35;97635.84;5032829;28;20377;-70
2022/03/05 00:29:36;;;;;;;25.20;13.30;;;;;;;5.60;38.55;97632.19;5037439;28;20542;-70
2022/03/05 00:32:01;;;;;;;21.73;12.30;;;;;;;5.60;38.32;97624.41;5032469;28;20185;-70
2022/03/05 00:34:26;;;;;;;24.27;13.07;;;;;;;5.55;38.38;97634.28;5032517;28;21476;-70
2022/03/05 00:36:52;;;;;;;20.27;11.70;;;;;;;5.47;38.60;97632.25;5038158;28;20260;-71
2022/03/05 00:39:17;;;;;;;24.67;12.37;;;;;;;5.37;38.81;97631.22;5034375;28;20842;-71
2022/03/05 00:41:43;;;;;;;25.53;12.13;;;;;;;5.34;38.58;97626.28;5032275;28;20240;-70
2022/03/05 00:44:08;;;;;;;20.50;11.83;;;;;;;5.22;39.55;97625.38;5032457;28;20186;-70
2022/03/05 00:46:34;;;;;;;19.57;12.40;;;;;;;5.28;39.48;97635.34;5032298;28;20768;-69
2022/03/05 00:48:59;;;;;;;25.27;12.50;;;;;;;5.31;39.49;97629.91;5033266;28;20264;-70
2022/03/05 00:51:25;;;;;;;22.80;12.10;;;;;;;5.31;38.87;97635.09;5032613;28;20678;-70
2022/03/05 00:53:50;;;;;;;21.80;12.63;;;;;;;5.34;39.08;97632.28;5032396;28;20178;-71
2022/03/05 00:56:15;;;;;;;25.23;12.60;;;;;;;5.34;39.13;97637.50;5031153;28;20606;-70
2022/03/05 00:58:41;;;;;;;28.80;12.00;;;;;;;5.29;38.95;97634.41;5031997;28;20406;-70
2022/03/05 01:01:07;;;;;;;22.00;12.57;;;;;;;5.34;39.38;97637.50;5032119;28;20212;-69
2022/03/05 01:03:32;;;;;;;23.47;12.60;;;;;;;5.32;39.47;97639.34;5023943;28;20826;-69
2022/03/05 01:05:58;;;;;;;21.13;11.90;;;;;;;5.31;39.21;97634.28;5031454;28;20216;-70
2022/03/05 01:08:24;;;;;;;21.53;12.73;;;;;;;5.32;39.29;97634.16;5014165;28;20667;-70
2022/03/05 01:10:49;;;;;;;30.60;13.43;;;;;;;5.12;39.60;97630.38;5031304;28;20223;-70
2022/03/05 01:13:15;;;;;;;24.80;14.00;;;;;;;5.20;39.63;97629.81;5030737;28;20193;-69
2022/03/05 01:15:40;;;;;;;19.03;11.43;;;;;;;5.16;38.67;97629.22;5030389;28;20179;-69
2022/03/05 01:18:06;;;;;;;22.60;12.27;;;;;;;5.15;38.76;97621.53;5030865;28;20297;-70
2022/03/05 01:20:31;;;;;;;18.03;10.77;;;;;;;5.15;38.88;97621.53;5030974;28;20204;-70
2022/03/05 01:22:57;;;;;;;19.03;12.20;;;;;;;5.06;39.15;97618.63;5030393;28;20626;-69
2022/03/05 01:25:22;;;;;;;24.27;11.87;;;;;;;5.04;39.74;97620.50;5029975;28;20195;-70
2022/03/05 01:27:48;;;;;;;21.23;11.93;;;;;;;5.02;39.47;97617.22;5031019;28;20190;-69
2022/03/05 01:30:13;;;;;;;19.40;11.37;;;;;;;5.04;39.57;97620.50;5030372;28;20210;-69
2022/03/05 01:32:39;;;;;;;19.23;11.80;;;;;;;4.96;39.92;97607.22;5030791;28;20183;-69
2022/03/05 01:35:05;;;;;;;22.83;12.20;;;;;;;5.00;39.83;97613.88;5030111;28;20252;-69
2022/03/05 01:37:30;;;;;;;23.27;12.40;;;;;;;5.06;39.38;97612.63;5030535;28;20225;-71
2022/03/05 01:39:56;;;;;;;17.80;11.53;;;;;;;5.02;39.07;97614.63;5030853;28;20949;-69
2022/03/05 01:42:23;;;;;;;20.23;12.40;;;;;;;5.03;39.47;97605.88;5030661;28;20269;-70
2022/03/05 01:44:49;;;;;;;20.60;11.97;;;;;;;5.00;39.45;97613.88;5029984;28;20248;-71
2022/03/05 01:47:14;;;;;;;30.20;11.73;;;;;;;5.03;38.97;97613.69;5030935;28;20423;-70
2022/03/05 01:49:40;;;;;;;19.90;11.23;;;;;;;4.99;39.32;97612.22;5030996;28;20453;-71
2022/03/05 01:52:05;;;;;;;21.30;12.33;;;;;;;4.95;39.18;97615.97;5030744;28;20192;-71
2022/03/05 01:54:31;;;;;;;19.87;12.00;;;;;;;4.95;39.45;97610.75;5035291;28;20190;-72
2022/03/05 01:56:57;;;;;;;19.30;12.30;;;;;;;4.95;39.79;97610.75;5032140;28;20244;-70
2022/03/05 01:59:23;;;;;;;19.70;11.80;;;;;;;4.92;39.71;97611.81;5031075;28;20477;-68
2022/03/05 02:01:49;;;;;;;20.90;11.73;;;;;;;4.86;39.28;97611.41;4997060;28;20423;-68
2022/03/05 02:04:15;;;;;;;17.03;11.10;;;;;;;4.84;39.27;97602.88;5031445;28;20432;-69
2022/03/05 02:06:41;;;;;;;16.90;11.80;;;;;;;4.84;39.64;97608.09;5037258;28;20419;-70
2022/03/05 02:09:06;;;;;;;20.73;11.43;;;;;;;4.81;39.61;97603.94;4981984;28;1093540;-70
2022/03/05 02:11:32;;;;;;;19.07;11.10;;;;;;;4.76;39.94;97608.59;5039162;28;20432;-70
2022/03/05 02:13:57;;;;;;;17.90;11.50;;;;;;;4.76;39.71;97609.47;5040464;28;20188;-71
2022/03/05 02:16:23;;;;;;;22.90;12.30;;;;;;;4.74;39.95;97613.06;5032291;28;20581;-71
2022/03/05 02:18:50;;;;;;;24.33;12.20;;;;;;;4.67;40.37;97617.03;5031372;28;20191;-71
2022/03/05 02:21:16;;;;;;;24.50;11.80;;;;;;;4.65;40.03;97609.38;5030480;28;20691;-71
2022/03/05 02:23:42;;;;;;;19.13;11.30;;;;;;;4.62;39.59;97614.75;5030975;28;20454;-71
2022/03/05 02:26:07;;;;;;;25.40;11.87;;;;;;;4.66;39.97;97612.78;5030648;28;20420;-69
2022/03/05 02:28:35;;;;;;;19.57;10.77;;;;;;;4.65;40.17;97611.97;5033330;28;20230;-68
2022/03/05 02:31:01;;;;;;;17.23;11.23;;;;;;;4.62;40.01;97612.16;5030834;28;20283;-65
2022/03/05 02:33:27;;;;;;;18.67;11.00;;;;;;;4.61;39.82;97618.28;5018643;28;20441;-69
2022/03/05 02:35:52;;;;;;;20.93;11.10;;;;;;;4.61;40.19;97613.09;5030026;28;20431;-69
2022/03/05 02:38:20;;;;;;;20.00;12.20;;;;;;;4.64;40.19;97612.06;5030558;28;20223;-69
2022/03/05 02:40:47;;;;;;;17.10;10.97;;;;;;;4.64;40.04;97615.50;5030794;28;20212;-69
2022/03/05 02:43:12;;;;;;;22.90;10.67;;;;;;;4.59;40.07;97607.19;5030623;28;20455;-68
2022/03/05 02:45:38;;;;;;;20.60;11.83;;;;;;;4.53;39.81;97610.22;5013240;28;20590;-69
2022/03/05 02:48:06;;;;;;;17.30;11.60;;;;;;;4.53;40.56;97612.81;5030293;28;20189;-69
2022/03/05 02:50:32;;;;;;;15.90;10.33;;;;;;;4.48;40.01;97615.69;5030794;28;20459;-68
2022/03/05 02:52:57;;;;;;;21.27;11.50;;;;;;;4.41;40.16;97617.03;5030542;28;20424;-69
2022/03/05 02:55:23;;;;;;;16.80;11.00;;;;;;;4.40;40.24;97605.84;5030009;28;20284;-69
2022/03/05 02:57:48;;;;;;;18.30;10.73;;;;;;;4.35;40.65;97601.91;5030622;28;20227;-70
2022/03/05 03:00:15;;;;;;;19.77;11.80;;;;;;;4.35;40.76;97602.72;5030524;28;20263;-69
2022/03/05 03:02:41;;;;;;;19.10;10.80;;;;;;;4.35;40.86;97600.13;5012991;28;20642;-68
2022/03/05 03:05:06;;;;;;;15.90;10.40;;;;;;;4.33;40.87;97607.19;5030082;28;20504;-68
2022/03/05 03:07:32;;;;;;;18.87;10.80;;;;;;;4.35;40.71;97605.31;5030035;28;20571;-68
2022/03/05 03:09:58;;;;;;;18.47;10.23;;;;;;;4.29;40.56;97613.50;5012773;28;20216;-71
2022/03/05 03:12:25;;;;;;;18.50;10.43;;;;;;;4.31;40.41;97606.44;5029671;28;20186;-71
2022/03/05 03:14:51;;;;;;;18.70;11.20;;;;;;;4.26;40.76;97606.75;5030474;28;20427;-71
2022/03/05 03:17:17;;;;;;;15.27;10.17;;;;;;;4.25;40.84;97605.09;5030210;28;20539;-70
2022/03/05 03:19:42;;;;;;;17.50;11.10;;;;;;;4.22;40.69;97609.66;5012659;28;20200;-70
2022/03/05 03:22:08;;;;;;;19.17;10.27;;;;;;;4.21;40.99;97610.59;5029610;28;20210;-70
2022/03/05 03:24:33;;;;;;;16.30;10.60;;;;;;;4.19;40.84;97615.91;5030183;28;20185;-70
2022/03/05 03:26:59;;;;;;;18.70;10.53;;;;;;;4.18;40.46;97610.78;5029714;28;20184;-70
2022/03/05 03:29:24;;;;;;;16.67;10.10;;;;;;;4.15;40.84;97612.69;5030229;28;20265;-70
2022/03/05 03:31:50;;;;;;;16.67;9.93;;;;;;;4.13;40.87;97608.50;5030004;28;20181;-70
2022/03/05 03:34:15;;;;;;;19.70;10.50;;;;;;;4.12;40.90;97612.88;5012449;28;20193;-69
2022/03/05 03:36:41;;;;;;;17.03;10.47;;;;;;;4.09;41.01;97615.66;5029723;28;20180;-69
2022/03/05 03:39:06;;;;;;;21.43;10.63;;;;;;;4.08;40.70;97615.78;5030335;28;20672;-69
2022/03/05 03:41:31;;;;;;;18.10;9.90;;;;;;;4.00;40.86;97618.88;5029437;28;20186;-69
2022/03/05 03:43:57;;;;;;;20.93;10.43;;;;;;;3.84;41.34;97613.88;5029981;28;20267;-68
2022/03/05 03:46:22;;;;;;;18.40;9.80;;;;;;;3.90;41.35;97617.81;5028193;28;20264;-69
2022/03/05 03:48:48;;;;;;;18.73;11.63;;;;;;;3.91;40.92;97611.69;5027868;28;20696;-69
2022/03/05 03:51:13;;;;;;;18.70;10.90;;;;;;;3.85;41.06;97618.09;5042008;28;20298;-68
2022/03/05 03:53:39;;;;;;;21.27;11.07;;;;;;;3.84;41.08;97614.69;5033370;28;20192;-69
2022/03/05 03:56:05;;;;;;;17.80;10.63;;;;;;;3.93;41.41;97626.22;5033332;28;20188;-69
2022/03/05 03:58:30;;;;;;;18.43;10.30;;;;;;;3.97;41.54;97622.47;5033224;28;20668;-68
2022/03/05 04:00:56;;;;;;;16.67;9.60;;;;;;;3.97;41.04;97619.88;5033093;28;20239;-70
2022/03/05 04:03:21;;;;;;;17.17;9.63;;;;;;;3.96;41.30;97623.44;5033220;28;20183;-69
2022/03/05 04:05:46;;;;;;;17.37;10.17;;;;;;;3.93;41.50;97628.81;5032894;28;20780;-69
2022/03/05 04:10:56;;;;;;;15.07;9.03;;;;;;;3.93;40.95;97617.59;5033073;28;20241;-69
2022/03/05 04:13:21;;;;;;;16.10;9.83;;;;;;;3.95;40.89;97620.94;5033117;28;20427;-69
2022/03/05 04:15:47;;;;;;;17.60;10.07;;;;;;;3.90;41.38;97618.63;5014745;28;20181;-70
2022/03/05 04:18:12;;;;;;;25.40;10.00;;;;;;;3.89;41.04;97622.16;5032494;28;20676;-69
2022/03/05 04:20:38;;;;;;;15.80;9.50;;;;;;;3.90;41.57;97620.41;5033140;28;20216;-69
2022/03/05 04:23:03;;;;;;;16.30;9.70;;;;;;;3.92;40.98;97621.97;5034928;28;20183;-68
2022/03/05 04:25:29;;;;;;;19.80;10.50;;;;;;;3.91;41.08;97619.47;5032340;28;20211;-69
2022/03/05 04:27:54;;;;;;;19.67;10.57;;;;;;;3.87;41.05;97620.59;5033155;28;20176;-71
2022/03/05 04:30:20;;;;;;;16.10;10.57;;;;;;;3.84;41.15;97624.25;5016966;28;20778;-70
2022/03/05 04:32:45;;;;;;;17.27;10.47;;;;;;;3.81;41.22;97617.47;5032727;28;20230;-70
2022/03/05 04:35:11;;;;;;;16.90;9.80;;;;;;;3.79;41.45;97621.91;5032395;28;20180;-69
2022/03/05 04:37:37;;;;;;;17.83;10.27;;;;;;;3.80;41.12;97628.78;5032738;28;20201;-70
2022/03/05 04:40:04;;;;;;;17.60;9.50;;;;;;;3.76;41.23;97627.31;5032554;28;20257;-69
2022/03/05 04:42:29;;;;;;;19.17;10.70;;;;;;;3.72;41.32;97623.25;5032211;28;20492;-69
2022/03/05 04:44:55;;;;;;;21.10;10.30;;;;;;;3.73;41.89;97627.53;5031882;28;20948;-69
2022/03/05 04:47:20;;;;;;;15.47;9.50;;;;;;;3.73;41.69;97626.66;5032507;28;20177;-70
2022/03/05 04:49:46;;;;;;;20.60;10.07;;;;;;;3.68;41.41;97629.56;5031729;28;20227;-71
2022/03/05 04:52:11;;;;;;;20.33;10.30;;;;;;;3.65;41.64;97635.78;5025463;28;20184;-70
2022/03/05 04:54:37;;;;;;;18.60;9.77;;;;;;;3.59;41.99;97635.34;5025592;28;20180;-71
2022/03/05 04:57:03;;;;;;;21.10;10.87;;;;;;;3.58;41.94;97631.09;5031811;28;20739;-70
2022/03/05 04:59:29;;;;;;;18.47;10.13;;;;;;;3.55;41.74;97639.91;5013544;28;20255;-71
2022/03/05 05:01:56;;;;;;;14.90;9.60;;;;;;;3.52;41.60;97646.13;4997990;28;20423;-70
2022/03/05 05:04:22;;;;;;;16.37;9.30;;;;;;;3.51;41.78;97644.44;5030447;28;20184;-70
2022/03/05 05:06:47;;;;;;;15.57;9.63;;;;;;;3.49;41.83;97643.72;4997413;28;20449;-70
2022/03/05 05:09:13;;;;;;;15.83;10.10;;;;;;;3.47;42.03;97642.97;4989043;28;20431;-69
2022/03/05 05:11:39;;;;;;;19.77;10.97;;;;;;;3.48;42.12;97638.59;5032042;28;20258;-69
2022/03/05 05:14:04;;;;;;;16.30;9.97;;;;;;;3.46;42.23;97648.25;5032413;28;20188;-69
2022/03/05 05:16:30;;;;;;;15.73;9.40;;;;;;;3.52;41.72;97647.88;5030713;28;20298;-70
2022/03/05 05:21:39;;;;;;;14.10;9.37;;;;;;;3.42;42.49;97645.00;5031750;28;20657;-70
2022/03/05 05:24:05;;;;;;;22.30;9.70;;;;;;;3.47;41.79;97648.16;5031292;28;20439;-70
2022/03/05 05:26:31;;;;;;;18.77;10.50;;;;;;;3.45;41.78;97647.41;5031092;28;20180;-71
2022/03/05 05:28:56;;;;;;;16.60;10.10;;;;;;;3.40;42.01;97644.31;5031313;28;20186;-70
2022/03/05 05:31:21;;;;;;;16.30;9.80;;;;;;;3.37;42.22;97652.25;5031354;28;20321;-70
2022/03/05 05:33:49;;;;;;;14.07;9.30;;;;;;;3.36;42.51;97648.81;5031249;28;20180;-70
2022/03/05 05:36:14;;;;;;;14.67;9.20;;;;;;;3.37;42.22;97652.25;5030654;28;20201;-69
2022/03/05 05:38:40;;;;;;;15.93;10.00;;;;;;;3.34;42.49;97657.63;5031120;28;20545;-69
2022/03/05 05:41:06;;;;;;;16.53;9.97;;;;;;;3.32;42.40;97664.66;5031391;28;20612;-69
2022/03/05 05:43:32;;;;;;;19.80;9.50;;;;;;;3.30;42.49;97658.72;5031375;28;20469;-69
2022/03/05 05:45:57;;;;;;;16.40;9.70;;;;;;;3.28;42.59;97658.84;5030746;28;20450;-68
2022/03/05 05:48:23;;;;;;;19.97;10.80;;;;;;;3.29;42.71;97665.69;5030475;28;20219;-72
2022/03/05 05:50:48;;;;;;;16.33;9.80;;;;;;;3.23;42.48;97674.69;5013954;28;20213;-69
2022/03/05 05:53:14;;;;;;;18.13;10.47;;;;;;;3.22;42.69;97674.75;5030450;28;20183;-71
2022/03/05 05:55:40;;;;;;;16.47;10.03;;;;;;;3.26;42.93;97670.25;5030514;28;20179;-71
2022/03/05 05:58:06;;;;;;;22.30;10.63;;;;;;;3.27;42.56;97677.09;5030793;28;20200;-68
2022/03/05 06:00:31;;;;;;;16.30;10.10;;;;;;;3.20;42.64;97677.44;5013037;28;20439;-68
2022/03/05 06:02:56;;;;;;;15.97;9.73;;;;;;;3.11;42.67;97688.38;5030599;28;20275;-70
2022/03/05 06:05:22;;;;;;;17.03;10.20;;;;;;;3.15;42.95;97682.06;5030314;28;20189;-69
2022/03/05 06:07:47;;;;;;;17.67;10.23;;;;;;;3.20;42.97;97684.41;5031220;28;20558;-72
2022/03/05 06:10:13;;;;;;;16.37;9.90;;;;;;;3.19;42.77;97688.72;5012569;28;20300;-68
2022/03/05 06:12:38;;;;;;;15.63;10.20;;;;;;;3.19;42.77;97691.31;5030846;28;20208;-70
2022/03/05 06:15:05;;;;;;;19.97;9.83;;;;;;;3.18;42.83;97689.66;5030695;28;20188;-69
2022/03/05 06:17:31;;;;;;;16.33;9.80;;;;;;;3.16;42.72;97694.09;5030210;28;20212;-70
2022/03/05 06:19:56;;;;;;;19.83;10.33;;;;;;;3.17;42.93;97698.34;5030757;28;20434;-70
2022/03/05 06:22:23;;;;;;;19.80;12.00;;;;;;;3.15;42.80;97695.03;5030413;28;20219;-69
2022/03/05 06:24:48;;;;;;;17.20;10.10;;;;;;;3.15;43.56;97696.78;5030572;28;20189;-69
2022/03/05 06:27:14;;;;;;;17.33;10.50;;;;;;;3.22;43.29;97695.47;5030699;28;20438;-71
2022/03/05 06:29:39;;;;;;;20.47;10.87;;;;;;;3.29;43.14;97696.78;5033258;28;20294;-69
2022/03/05 06:32:05;;;;;;;19.00;11.07;;;;;;;3.36;43.36;97692.88;5033161;28;20652;-70
2022/03/05 06:34:31;;;;;;;22.17;11.13;;;;;;;3.54;42.72;97698.66;5031464;28;20242;-71
2022/03/05 06:36:57;;;;;;;30.07;12.50;;;;;;;3.69;42.71;97698.63;5032907;28;20211;-70
2022/03/05 06:39:22;;;;;;;20.97;11.90;;;;;;;3.81;42.25;97702.22;5032561;28;20907;-70
2022/03/05 06:41:49;;;;;;;18.67;11.60;;;;;;;3.98;42.07;97701.97;5032678;28;20321;-69
2022/03/05 06:44:15;;;;;;;19.40;11.30;;;;;;;4.20;42.26;97720.50;5033315;28;20619;-71
2022/03/05 06:46:40;;;;;;;20.00;11.70;;;;;;;4.43;42.06;97719.00;5014920;28;20535;-72
2022/03/05 06:49:05;;;;;;;24.60;13.13;;;;;;;4.64;41.70;97727.16;5035855;28;20194;-72
2022/03/05 06:51:31;;;;;;;18.47;11.83;;;;;;;4.77;40.97;97729.75;5036716;28;20239;-72
2022/03/05 06:53:56;;;;;;;21.97;11.40;;;;;;;4.98;40.85;97721.44;5014867;28;20192;-72
2022/03/05 06:56:22;;;;;;;21.47;11.70;;;;;;;4.69;42.16;97725.06;5036900;28;20207;-72
2022/03/05 06:58:47;;;;;;;23.23;12.07;;;;;;;5.04;40.90;97724.44;5035985;28;20546;-72
2022/03/05 07:01:12;;;;;;;22.00;12.73;;;;;;;5.20;40.96;97731.19;5036745;28;20210;-71
2022/03/05 07:03:38;;;;;;;17.47;11.43;;;;;;;5.33;41.18;97734.59;5036445;28;20260;-71
2022/03/05 07:06:04;;;;;;;17.63;11.40;;;;;;;5.34;41.12;97735.44;5033460;28;20186;-70
2022/03/05 07:08:29;;;;;;;18.87;11.80;;;;;;;5.46;40.78;97742.41;5030178;28;20577;-70
2022/03/05 07:10:55;;;;;;;33.57;14.07;;;;;;;5.57;40.71;97739.03;5030610;28;20795;-72
2022/03/05 07:13:20;;;;;;;20.77;13.43;;;;;;;5.65;40.82;97738.50;5030556;28;20184;-72
2022/03/05 07:15:47;;;;;;;25.67;13.17;;;;;;;5.61;40.56;97737.88;5029903;28;20180;-70
2022/03/05 07:18:12;;;;;;;20.30;13.43;;;;;;;5.51;40.64;97736.88;5030506;28;20553;-71
2022/03/05 07:20:38;;;;;;;20.43;13.23;;;;;;;5.53;41.21;97735.00;5030885;28;20443;-70
2022/03/05 07:23:04;;;;;;;24.57;13.47;;;;;;;5.54;40.93;97740.06;5025120;28;20193;-72
2022/03/05 07:25:36;;;;;;;24.33;14.10;;;;;;;5.55;40.92;97743.50;5034391;28;20175;-71
2022/03/05 07:28:03;;;;;;;23.30;13.43;;;;;;;5.63;40.69;97735.16;5017736;28;20441;-71
2022/03/05 07:30:28;;;;;;;27.57;14.70;;;;;;;5.59;41.14;97741.53;5036638;28;20767;-70
2022/03/05 07:32:54;;;;;;;27.50;15.50;;;;;;;5.72;40.47;97737.13;5037566;28;20429;-70
2022/03/05 07:35:19;;;;;;;23.50;14.07;;;;;;;5.80;40.06;97733.97;5010213;28;20192;-70
2022/03/05 07:37:45;;;;;;;19.90;13.20;;;;;;;5.79;40.33;97735.75;5036720;28;20192;-70
2022/03/05 07:40:11;;;;;;;24.37;14.90;;;;;;;5.74;40.03;97743.03;5035744;28;20249;-71
2022/03/05 07:42:37;;;;;;;34.93;13.90;;;;;;;5.64;40.90;97731.63;5035760;28;20168;-72
2022/03/05 07:45:03;;;;;;;24.57;15.47;;;;;;;5.79;40.55;97729.72;5036275;28;20441;-70
2022/03/05 07:47:28;;;;;;;23.77;14.80;;;;;;;5.80;40.79;97736.56;5036677;28;20183;-70
2022/03/05 07:49:53;;;;;;;22.10;14.10;;;;;;;5.87;40.22;97735.19;5017254;28;20810;-70
2022/03/05 07:52:19;;;;;;;26.90;14.43;;;;;;;5.92;40.75;97735.69;5033643;28;20194;-70
2022/03/05 07:54:45;;;;;;;28.67;16.30;;;;;;;5.80;40.17;97734.81;5035776;28;20183;-70
2022/03/05 07:57:10;;;;;;;29.97;15.93;;;;;;;5.86;40.66;97738.75;5035336;28;20670;-71
2022/03/05 07:59:36;;;;;;;27.03;15.60;;;;;;;5.84;40.73;97731.06;5035380;28;20211;-70
2022/03/05 08:02:01;;;;;;;29.57;16.17;;;;;;;5.86;40.84;97733.53;5035518;28;20184;-70
2022/03/05 08:04:27;;;;;;;27.17;16.10;;;;;;;5.95;40.37;97739.88;5035732;28;20202;-71
2022/03/05 08:06:52;;;;;;;26.60;15.53;;;;;;;5.96;40.27;97726.72;5035663;28;20222;-70
2022/03/05 08:09:18;;;;;;;28.13;16.30;;;;;;;6.09;40.01;97733.69;5034988;28;20238;-71
2022/03/05 08:11:43;;;;;;;24.00;15.50;;;;;;;6.17;40.42;97733.97;5035526;28;20275;-70
2022/03/05 08:14:09;;;;;;;23.90;15.73;;;;;;;6.35;39.66;97730.94;5016779;28;20268;-70
2022/03/05 08:16:34;;;;;;;31.93;16.20;;;;;;;6.45;39.33;97726.72;5034844;28;20187;-71
2022/03/05 08:19:00;;;;;;;33.70;16.30;;;;;;;6.79;38.92;97729.44;5034214;28;20204;-69
2022/03/05 08:21:29;;;;;;;24.73;15.37;;;;;;;7.03;38.76;97731.94;5035009;28;20652;-70
2022/03/05 08:23:55;;;;;;;30.33;15.70;;;;;;;7.28;37.85;97734.47;5016222;28;20996;-70
2022/03/05 08:26:21;;;;;;;25.10;16.47;;;;;;;7.65;37.62;97723.75;5033709;28;20429;-70
2022/03/05 08:28:47;;;;;;;27.50;16.10;;;;;;;7.94;36.69;97725.84;5033043;28;21133;-69
2022/03/05 08:31:12;;;;;;;29.87;16.37;;;;;;;8.18;36.10;97733.47;5041098;28;20442;-71
2022/03/05 08:33:38;;;;;;;28.47;17.10;;;;;;;8.07;36.10;97739.53;5033077;28;20643;-71
2022/03/05 08:36:05;;;;;;;24.97;15.33;;;;;;;8.32;36.07;97741.97;5032505;28;20192;-71
2022/03/05 08:38:31;;;;;;;26.40;15.73;;;;;;;8.45;35.93;97737.41;5029555;28;20491;-70
2022/03/05 08:40:58;;;;;;;27.33;16.10;;;;;;;8.55;35.59;97734.91;5026835;28;20492;-73
2022/03/05 08:43:24;;;;;;;27.40;16.10;;;;;;;8.92;35.25;97739.66;5032644;28;20804;-72
2022/03/05 08:45:50;;;;;;;28.47;17.87;;;;;;;9.07;35.09;97735.75;5033032;28;20419;-70
2022/03/05 08:48:15;;;;;;;26.53;16.60;;;;;;;9.20;33.97;97737.31;5030818;28;20424;-71
2022/03/05 08:50:41;;;;;;;34.83;17.10;;;;;;;9.41;33.77;97736.47;5025664;28;20238;-71
2022/03/05 08:53:06;;;;;;;21.93;14.67;;;;;;;9.32;34.03;97744.16;5032290;28;20185;-71
2022/03/05 08:55:32;;;;;;;27.00;16.90;;;;;;;9.50;33.49;97746.13;5031561;28;20194;-71
2022/03/05 08:57:57;;;;;;;22.70;15.33;;;;;;;9.45;33.59;97737.88;5014522;28;20222;-72
2022/03/05 09:00:23;;;;;;;25.20;15.50;;;;;;;9.49;33.09;97737.47;5032434;28;20212;-71
2022/03/05 09:02:48;;;;;;;30.03;16.97;;;;;;;9.64;33.28;97743.16;5032737;28;20659;-70
2022/03/05 09:05:14;;;;;;;25.20;15.77;;;;;;;9.64;32.94;97737.09;5031937;28;20272;-70
2022/03/05 09:07:41;;;;;;;23.97;15.43;;;;;;;10.05;32.91;97730.00;5032539;28;20181;-71
2022/03/05 09:10:08;;;;;;;24.73;15.67;;;;;;;10.26;31.95;97729.06;5032171;28;20466;-71
2022/03/05 09:12:33;;;;;;;24.90;16.03;;;;;;;10.25;32.38;97736.09;5015895;28;20459;-72
2022/03/05 09:14:59;;;;;;;22.77;14.67;;;;;;;10.47;31.72;97721.06;5030849;28;20911;-70
2022/03/05 09:17:25;;;;;;;22.90;15.13;;;;;;;10.85;31.32;97722.00;5032143;28;20459;-72
2022/03/05 09:19:50;;;;;;;22.67;14.27;;;;;;;10.84;30.47;97720.34;5032519;28;20204;-71
2022/03/05 09:22:17;;;;;;;23.00;13.67;;;;;;;10.94;30.36;97719.50;5032537;28;20646;-72
2022/03/05 09:24:42;;;;;;;20.40;13.70;;;;;;;10.90;30.44;97716.31;5031267;28;20178;-70
2022/03/05 09:27:09;;;;;;;20.57;14.13;;;;;;;10.89;30.63;97710.25;5032353;28;20434;-71
2022/03/05 09:29:35;;;;;;;22.03;13.40;;;;;;;10.96;31.02;97712.31;5024027;28;20210;-71
2022/03/05 09:32:00;;;;;;;21.47;13.60;;;;;;;11.03;30.45;97702.91;5013922;28;20436;-71
2022/03/05 09:34:26;;;;;;;21.10;13.70;;;;;;;11.23;30.13;97714.16;5030870;28;20282;-71
2022/03/05 09:36:51;;;;;;;21.20;14.27;;;;;;;11.43;29.79;97714.91;5031632;28;20189;-71
2022/03/05 09:39:18;;;;;;;19.10;13.03;;;;;;;11.33;29.34;97714.94;5030732;28;20219;-71
2022/03/05 09:41:43;;;;;;;18.53;13.20;;;;;;;11.57;28.75;97716.22;5025583;28;20179;-73
2022/03/05 09:44:09;;;;;;;19.77;12.70;;;;;;;11.54;29.08;97721.75;5022693;28;20537;-71
2022/03/05 09:46:35;;;;;;;19.37;12.73;;;;;;;11.23;28.57;97716.78;5028058;28;20252;-72
2022/03/05 09:49:03;;;;;;;21.77;14.10;;;;;;;11.42;28.84;97713.25;5027755;28;20549;-70
2022/03/05 09:51:28;;;;;;;18.30;12.40;;;;;;;11.81;28.74;97714.84;5031222;28;20461;-72
2022/03/05 09:53:55;;;;;;;20.37;13.53;;;;;;;12.10;28.60;97706.78;5031035;28;20458;-72
2022/03/05 09:56:21;;;;;;;19.03;12.97;;;;;;;11.86;28.14;97701.25;5031346;28;20195;-72
2022/03/05 09:58:50;;;;;;;16.70;12.33;;;;;;;12.08;28.02;97719.28;5031614;28;21026;-69
2022/03/05 10:01:17;;;;;;;20.13;12.40;;;;;;;11.81;27.46;97707.78;5031074;28;20442;-70
2022/03/05 10:03:44;;;;;;;20.90;11.60;;;;;;;12.36;27.75;97698.16;5031095;28;20434;-72
2022/03/05 10:06:17;;;;;;;21.13;12.70;;;;;;;12.26;27.28;97703.50;5031156;28;20935;-71
2022/03/05 10:08:44;;;;;;;16.33;11.27;;;;;;;12.64;26.90;97703.28;5013493;28;20426;-71
2022/03/05 10:11:11;;;;;;;18.00;11.90;;;;;;;12.63;25.50;97695.56;5030377;28;20508;-71
2022/03/05 10:13:38;;;;;;;18.13;12.20;;;;;;;12.62;25.82;97702.63;5031149;28;20477;-71
2022/03/05 10:16:24;;;;;;;18.70;11.30;;;;;;;13.05;26.07;97700.94;5031913;28;20427;-73
2022/03/05 10:18:49;;;;;;;20.07;12.37;;;;;;;12.85;26.16;97702.13;5025473;28;20509;-70
2022/03/05 10:21:16;;;;;;;17.90;12.63;;;;;;;12.99;26.40;97700.72;5030756;28;20448;-71
2022/03/05 10:23:47;;;;;;;13.00;10.17;;;;;;;13.00;25.14;97705.84;5012627;28;20179;-70
2022/03/05 10:26:14;;;;;;;16.33;10.10;;;;;;;12.87;24.78;97708.03;5030581;28;20463;-72
2022/03/05 10:28:40;;;;;;;13.93;9.97;;;;;;;13.04;24.82;97701.09;5034991;28;20423;-71
2022/03/05 10:31:09;;;;;;;14.77;10.27;;;;;;;13.15;25.14;97700.00;5031689;28;20441;-70
2022/03/05 10:33:36;;;;;;;13.00;9.40;;;;;;;13.41;25.54;97697.38;5023214;28;20184;-72
2022/03/05 10:36:07;;;;;;;13.27;8.63;;;;;;;13.45;24.14;97706.59;5031026;28;20993;-71
2022/03/05 10:38:55;;;;;;;13.17;8.93;;;;;;;13.46;23.62;97697.69;5023460;28;20782;-70
2022/03/05 10:41:35;;;;;;;14.40;9.90;;;;;;;13.15;23.35;97700.00;5031525;28;20446;-71
2022/03/05 10:44:15;;;;;;;12.07;8.83;;;;;;;12.97;23.74;97698.28;5027784;28;20557;-71
2022/03/05 10:46:46;;;;;;;14.40;9.87;;;;;;;12.38;24.42;97696.19;5022917;28;20414;-71
2022/03/05 10:49:16;;;;;;;21.13;9.93;;;;;;;12.64;24.60;97690.16;5030471;28;20431;-71
2022/03/05 10:51:50;;;;;;;14.07;8.87;;;;;;;12.54;24.37;97681.53;5030763;28;20521;-72
2022/03/05 10:54:39;;;;;;;12.73;9.13;;;;;;;13.05;24.69;97679.88;5030299;28;20967;-70
2022/03/05 10:57:18;;;;;;;10.50;8.27;;;;;;;13.38;24.06;97700.28;5032858;28;20521;-70
2022/03/05 10:59:45;;;;;;;13.70;8.60;;;;;;;13.16;23.46;97685.84;5027916;28;20488;-71
2022/03/05 11:02:13;;;;;;;11.93;8.50;;;;;;;13.30;22.93;97681.78;5031488;28;20423;-71
2022/03/05 11:04:45;;;;;;;13.80;8.97;;;;;;;13.32;23.68;97679.84;5034353;28;20460;-71
2022/03/05 11:07:12;;;;;;;14.67;9.10;;;;;;;12.90;23.63;97670.91;5034383;28;20410;-70
2022/03/05 11:09:39;;;;;;;12.53;9.30;;;;;;;12.87;23.92;97676.47;5034789;28;20454;-71
2022/03/05 11:12:07;;;;;;;11.93;9.40;;;;;;;12.93;24.29;97667.13;5033324;28;20786;-71
2022/03/05 11:14:33;;;;;;;14.17;9.90;;;;;;;12.89;24.12;97672.72;5024226;28;20421;-71
2022/03/05 11:16:59;;;;;;;12.73;9.33;;;;;;;12.80;23.79;97680.72;5030010;28;20434;-71
2022/03/05 11:19:26;;;;;;;12.80;9.50;;;;;;;13.06;23.90;97671.00;5033643;28;20208;-72
2022/03/05 11:21:52;;;;;;;18.10;9.23;;;;;;;13.29;23.80;97670.47;5029687;28;20440;-71
2022/03/05 11:24:19;;;;;;;11.23;8.70;;;;;;;13.59;23.67;97663.03;5031690;28;20514;-70